sensor_id;sensor_type;location;lat;lon;timestamp;P1;durP1;ratioP1;P2;durP2;ratioP2
12906;SDS011;6521;50.498;8.474;2023-03-04T00:00:39;38.07;;;17.53;;
12906;SDS011;6521;50.498;8.474;2023-03-04T00:03:12;42.20;;;17.30;;
12906;SDS011;6521;50.498;8.474;2023-03-04T00:05:44;38.60;;;17.43;;
12906;SDS011;6521;50.498;8.474;2023-03-04T00:08:16;40.93;;;18.53;;
12906;SDS011;6521;50.498;8.474;2023-03-04T00:10:47;40.30;;;19.13;;
12906;SDS011;6521;50.498;8.474;2023-03-04T00:13:18;43.33;;;19.20;;
12906;SDS011;6521;50.498;8.474;2023-03-04T00:15:51;39.73;;;18.33;;
12906;SDS011;6521;50.498;8.474;2023-03-04T00:18:22;41.53;;;19.07;;
12906;SDS011;6521;50.498;8.474;2023-03-04T00:20:52;43.70;;;20.10;;
12906;SDS011;6521;50.498;8.474;2023-03-04T00:23:23;35.97;;;17.93;;
12906;SDS011;6521;50.498;8.474;2023-03-04T00:25:54;39.67;;;18.50;;
12906;SDS011;6521;50.498;8.474;2023-03-04T00:28:25;34.73;;;17.20;;
12906;SDS011;6521;50.498;8.474;2023-03-04T00:30:56;36.43;;;16.17;;
12906;SDS011;6521;50.498;8.474;2023-03-04T00:33:27;38.50;;;18.07;;
12906;SDS011;6521;50.498;8.474;2023-03-04T00:35:58;35.83;;;18.07;;
12906;SDS011;6521;50.498;8.474;2023-03-04T00:38:29;33.37;;;16.83;;
12906;SDS011;6521;50.498;8.474;2023-03-04T00:41:00;33.90;;;16.50;;
12906;SDS011;6521;50.498;8.474;2023-03-04T00:43:30;38.97;;;17.57;;
12906;SDS011;6521;50.498;8.474;2023-03-04T00:46:01;33.73;;;16.37;;
12906;SDS011;6521;50.498;8.474;2023-03-04T00:48:33;38.23;;;18.47;;
12906;SDS011;6521;50.498;8.474;2023-03-04T00:51:04;40.07;;;18.93;;
12906;SDS011;6521;50.498;8.474;2023-03-04T00:53:35;44.90;;;19.63;;
12906;SDS011;6521;50.498;8.474;2023-03-04T00:56:06;39.93;;;20.10;;
12906;SDS011;6521;50.498;8.474;2023-03-04T00:58:37;44.57;;;19.47;;
12906;SDS011;6521;50.498;8.474;2023-03-04T01:01:09;44.83;;;19.10;;
12906;SDS011;6521;50.498;8.474;2023-03-04T01:03:40;41.33;;;19.23;;
12906;SDS011;6521;50.498;8.474;2023-03-04T01:06:12;41.97;;;18.73;;
12906;SDS011;6521;50.498;8.474;2023-03-04T01:08:43;41.30;;;19.50;;
12906;SDS011;6521;50.498;8.474;2023-03-04T01:11:13;47.80;;;20.47;;
12906;SDS011;6521;50.498;8.474;2023-03-04T01:13:44;49.83;;;20.77;;
12906;SDS011;6521;50.498;8.474;2023-03-04T01:16:15;47.97;;;20.83;;
12906;SDS011;6521;50.498;8.474;2023-03-04T01:18:46;43.73;;;20.87;;
12906;SDS011;6521;50.498;8.474;2023-03-04T01:21:18;48.13;;;22.67;;
12906;SDS011;6521;50.498;8.474;2023-03-04T01:23:49;48.97;;;21.73;;
12906;SDS011;6521;50.498;8.474;2023-03-04T01:26:19;42.53;;;19.97;;
12906;SDS011;6521;50.498;8.474;2023-03-04T01:28:51;42.93;;;20.60;;
12906;SDS011;6521;50.498;8.474;2023-03-04T01:31:22;49.23;;;21.47;;
12906;SDS011;6521;50.498;8.474;2023-03-04T01:33:54;39.73;;;20.07;;
12906;SDS011;6521;50.498;8.474;2023-03-04T01:36:25;39.63;;;20.07;;
12906;SDS011;6521;50.498;8.474;2023-03-04T01:38:56;44.80;;;21.53;;
12906;SDS011;6521;50.498;8.474;2023-03-04T01:41:28;45.37;;;20.70;;
12906;SDS011;6521;50.498;8.474;2023-03-04T01:43:59;40.80;;;19.97;;
12906;SDS011;6521;50.498;8.474;2023-03-04T01:46:32;45.90;;;21.93;;
12906;SDS011;6521;50.498;8.474;2023-03-04T01:49:03;48.77;;;21.50;;
12906;SDS011;6521;50.498;8.474;2023-03-04T01:51:35;45.17;;;21.47;;
12906;SDS011;6521;50.498;8.474;2023-03-04T01:54:07;49.73;;;22.57;;
12906;SDS011;6521;50.498;8.474;2023-03-04T01:56:38;44.27;;;21.33;;
12906;SDS011;6521;50.498;8.474;2023-03-04T02:01:49;44.00;;;21.30;;
12906;SDS011;6521;50.498;8.474;2023-03-04T02:04:25;47.73;;;22.83;;
12906;SDS011;6521;50.498;8.474;2023-03-04T02:06:59;49.07;;;22.00;;
12906;SDS011;6521;50.498;8.474;2023-03-04T02:09:32;47.33;;;22.30;;
12906;SDS011;6521;50.498;8.474;2023-03-04T02:12:03;46.33;;;23.13;;
12906;SDS011;6521;50.498;8.474;2023-03-04T02:14:34;43.00;;;21.67;;
12906;SDS011;6521;50.498;8.474;2023-03-04T02:17:09;43.90;;;22.20;;
12906;SDS011;6521;50.498;8.474;2023-03-04T02:20:18;51.90;;;22.47;;
12906;SDS011;6521;50.498;8.474;2023-03-04T02:25:51;46.17;;;23.10;;
12906;SDS011;6521;50.498;8.474;2023-03-04T02:28:37;42.60;;;22.57;;
12906;SDS011;6521;50.498;8.474;2023-03-04T02:33:57;38.33;;;21.70;;
12906;SDS011;6521;50.498;8.474;2023-03-04T02:36:31;44.43;;;22.40;;
12906;SDS011;6521;50.498;8.474;2023-03-04T02:39:07;42.03;;;22.73;;
12906;SDS011;6521;50.498;8.474;2023-03-04T02:42:02;45.00;;;23.43;;
12906;SDS011;6521;50.498;8.474;2023-03-04T02:44:36;46.90;;;23.93;;
12906;SDS011;6521;50.498;8.474;2023-03-04T02:47:09;45.53;;;22.77;;
12906;SDS011;6521;50.498;8.474;2023-03-04T02:49:41;39.97;;;22.40;;
12906;SDS011;6521;50.498;8.474;2023-03-04T02:52:13;43.87;;;22.40;;
12906;SDS011;6521;50.498;8.474;2023-03-04T02:54:49;45.77;;;23.00;;
12906;SDS011;6521;50.498;8.474;2023-03-04T02:57:21;43.70;;;22.40;;
12906;SDS011;6521;50.498;8.474;2023-03-04T02:59:56;43.00;;;21.97;;
12906;SDS011;6521;50.498;8.474;2023-03-04T03:02:29;40.23;;;22.80;;
12906;SDS011;6521;50.498;8.474;2023-03-04T03:05:00;45.37;;;23.73;;
12906;SDS011;6521;50.498;8.474;2023-03-04T03:07:32;43.53;;;23.90;;
12906;SDS011;6521;50.498;8.474;2023-03-04T03:10:04;50.50;;;24.37;;
12906;SDS011;6521;50.498;8.474;2023-03-04T03:12:35;49.87;;;23.70;;
12906;SDS011;6521;50.498;8.474;2023-03-04T03:15:06;39.90;;;22.73;;
12906;SDS011;6521;50.498;8.474;2023-03-04T03:17:38;44.73;;;23.20;;
12906;SDS011;6521;50.498;8.474;2023-03-04T03:20:09;53.27;;;23.53;;
12906;SDS011;6521;50.498;8.474;2023-03-04T03:22:42;47.57;;;23.93;;
12906;SDS011;6521;50.498;8.474;2023-03-04T03:25:14;48.43;;;22.10;;
12906;SDS011;6521;50.498;8.474;2023-03-04T03:27:46;48.07;;;23.80;;
12906;SDS011;6521;50.498;8.474;2023-03-04T03:30:17;42.13;;;22.33;;
12906;SDS011;6521;50.498;8.474;2023-03-04T03:32:48;45.10;;;23.77;;
12906;SDS011;6521;50.498;8.474;2023-03-04T03:35:18;45.50;;;23.13;;
12906;SDS011;6521;50.498;8.474;2023-03-04T03:37:50;49.10;;;23.53;;
12906;SDS011;6521;50.498;8.474;2023-03-04T03:40:20;49.93;;;24.70;;
12906;SDS011;6521;50.498;8.474;2023-03-04T03:42:51;45.13;;;24.07;;
12906;SDS011;6521;50.498;8.474;2023-03-04T03:45:22;49.83;;;24.23;;
12906;SDS011;6521;50.498;8.474;2023-03-04T03:47:53;43.73;;;22.33;;
12906;SDS011;6521;50.498;8.474;2023-03-04T03:50:24;49.50;;;23.97;;
12906;SDS011;6521;50.498;8.474;2023-03-04T03:52:54;39.17;;;22.07;;
12906;SDS011;6521;50.498;8.474;2023-03-04T03:55:26;45.23;;;24.03;;
12906;SDS011;6521;50.498;8.474;2023-03-04T03:57:57;47.10;;;22.80;;
12906;SDS011;6521;50.498;8.474;2023-03-04T04:00:28;43.37;;;22.43;;
12906;SDS011;6521;50.498;8.474;2023-03-04T04:02:59;44.23;;;23.10;;
12906;SDS011;6521;50.498;8.474;2023-03-04T04:05:30;41.53;;;21.77;;
12906;SDS011;6521;50.498;8.474;2023-03-04T04:08:01;45.20;;;22.50;;
12906;SDS011;6521;50.498;8.474;2023-03-04T04:10:32;42.60;;;22.47;;
12906;SDS011;6521;50.498;8.474;2023-03-04T04:13:02;35.60;;;21.23;;
12906;SDS011;6521;50.498;8.474;2023-03-04T04:15:33;38.50;;;20.83;;
12906;SDS011;6521;50.498;8.474;2023-03-04T04:18:05;41.47;;;22.43;;
12906;SDS011;6521;50.498;8.474;2023-03-04T04:20:36;35.63;;;20.80;;
12906;SDS011;6521;50.498;8.474;2023-03-04T04:23:07;31.77;;;19.97;;
12906;SDS011;6521;50.498;8.474;2023-03-04T04:25:38;33.23;;;19.57;;
12906;SDS011;6521;50.498;8.474;2023-03-04T04:28:09;36.03;;;21.20;;
12906;SDS011;6521;50.498;8.474;2023-03-04T04:30:40;36.33;;;20.50;;
12906;SDS011;6521;50.498;8.474;2023-03-04T04:33:10;34.40;;;20.03;;
12906;SDS011;6521;50.498;8.474;2023-03-04T04:35:41;32.23;;;18.80;;
12906;SDS011;6521;50.498;8.474;2023-03-04T04:38:12;34.67;;;20.27;;
12906;SDS011;6521;50.498;8.474;2023-03-04T04:40:43;35.80;;;19.30;;
12906;SDS011;6521;50.498;8.474;2023-03-04T04:43:13;34.20;;;19.73;;
12906;SDS011;6521;50.498;8.474;2023-03-04T04:45:44;35.87;;;20.30;;
12906;SDS011;6521;50.498;8.474;2023-03-04T04:48:15;30.10;;;18.30;;
12906;SDS011;6521;50.498;8.474;2023-03-04T04:50:52;30.43;;;18.63;;
12906;SDS011;6521;50.498;8.474;2023-03-04T04:53:23;27.83;;;17.83;;
12906;SDS011;6521;50.498;8.474;2023-03-04T04:55:54;28.30;;;16.60;;
12906;SDS011;6521;50.498;8.474;2023-03-04T04:58:25;29.97;;;17.20;;
12906;SDS011;6521;50.498;8.474;2023-03-04T05:00:56;27.73;;;16.70;;
12906;SDS011;6521;50.498;8.474;2023-03-04T05:03:27;26.63;;;16.53;;
12906;SDS011;6521;50.498;8.474;2023-03-04T05:05:58;37.83;;;17.40;;
12906;SDS011;6521;50.498;8.474;2023-03-04T05:08:28;27.53;;;16.20;;
12906;SDS011;6521;50.498;8.474;2023-03-04T05:10:59;27.10;;;16.77;;
12906;SDS011;6521;50.498;8.474;2023-03-04T05:13:31;25.47;;;15.93;;
12906;SDS011;6521;50.498;8.474;2023-03-04T05:16:02;29.17;;;17.67;;
12906;SDS011;6521;50.498;8.474;2023-03-04T05:18:33;26.37;;;16.63;;
12906;SDS011;6521;50.498;8.474;2023-03-04T05:21:04;25.53;;;16.77;;
12906;SDS011;6521;50.498;8.474;2023-03-04T05:23:36;27.20;;;15.63;;
12906;SDS011;6521;50.498;8.474;2023-03-04T05:26:12;25.13;;;15.53;;
12906;SDS011;6521;50.498;8.474;2023-03-04T05:28:45;29.90;;;16.00;;
12906;SDS011;6521;50.498;8.474;2023-03-04T05:31:16;25.37;;;15.20;;
12906;SDS011;6521;50.498;8.474;2023-03-04T05:33:47;29.33;;;16.37;;
12906;SDS011;6521;50.498;8.474;2023-03-04T05:36:17;25.33;;;16.03;;
12906;SDS011;6521;50.498;8.474;2023-03-04T05:38:48;27.53;;;15.83;;
12906;SDS011;6521;50.498;8.474;2023-03-04T05:41:19;29.13;;;16.07;;
12906;SDS011;6521;50.498;8.474;2023-03-04T05:43:52;25.83;;;15.57;;
12906;SDS011;6521;50.498;8.474;2023-03-04T05:46:22;22.57;;;14.63;;
12906;SDS011;6521;50.498;8.474;2023-03-04T05:48:54;20.90;;;13.93;;
12906;SDS011;6521;50.498;8.474;2023-03-04T05:51:25;27.40;;;14.83;;
12906;SDS011;6521;50.498;8.474;2023-03-04T05:53:56;27.93;;;16.30;;
12906;SDS011;6521;50.498;8.474;2023-03-04T05:56:27;28.23;;;15.37;;
12906;SDS011;6521;50.498;8.474;2023-03-04T05:58:59;26.00;;;14.97;;
12906;SDS011;6521;50.498;8.474;2023-03-04T06:01:30;30.20;;;14.00;;
12906;SDS011;6521;50.498;8.474;2023-03-04T06:04:01;21.63;;;13.73;;
12906;SDS011;6521;50.498;8.474;2023-03-04T06:06:32;33.10;;;15.23;;
12906;SDS011;6521;50.498;8.474;2023-03-04T06:09:03;21.50;;;13.30;;
12906;SDS011;6521;50.498;8.474;2023-03-04T06:11:33;27.70;;;15.50;;
12906;SDS011;6521;50.498;8.474;2023-03-04T06:14:04;24.07;;;13.80;;
12906;SDS011;6521;50.498;8.474;2023-03-04T06:16:35;25.63;;;14.00;;
12906;SDS011;6521;50.498;8.474;2023-03-04T06:19:06;25.67;;;13.33;;
12906;SDS011;6521;50.498;8.474;2023-03-04T06:21:36;30.53;;;13.30;;
12906;SDS011;6521;50.498;8.474;2023-03-04T06:24:07;26.00;;;13.67;;
12906;SDS011;6521;50.498;8.474;2023-03-04T06:26:38;31.63;;;12.53;;
12906;SDS011;6521;50.498;8.474;2023-03-04T06:29:09;26.33;;;12.43;;
12906;SDS011;6521;50.498;8.474;2023-03-04T06:31:40;21.90;;;11.40;;
12906;SDS011;6521;50.498;8.474;2023-03-04T06:34:11;23.73;;;12.77;;
12906;SDS011;6521;50.498;8.474;2023-03-04T06:36:41;22.80;;;12.60;;
12906;SDS011;6521;50.498;8.474;2023-03-04T06:39:13;25.23;;;12.50;;
12906;SDS011;6521;50.498;8.474;2023-03-04T06:41:43;23.07;;;11.67;;
12906;SDS011;6521;50.498;8.474;2023-03-04T06:44:14;31.47;;;12.70;;
12906;SDS011;6521;50.498;8.474;2023-03-04T06:46:45;53.43;;;14.17;;
12906;SDS011;6521;50.498;8.474;2023-03-04T06:49:16;38.57;;;13.87;;
12906;SDS011;6521;50.498;8.474;2023-03-04T06:51:47;35.00;;;15.10;;
12906;SDS011;6521;50.498;8.474;2023-03-04T06:54:17;25.53;;;13.57;;
12906;SDS011;6521;50.498;8.474;2023-03-04T06:56:49;27.67;;;12.80;;
12906;SDS011;6521;50.498;8.474;2023-03-04T06:59:21;25.73;;;13.17;;
12906;SDS011;6521;50.498;8.474;2023-03-04T07:01:53;27.80;;;12.20;;
12906;SDS011;6521;50.498;8.474;2023-03-04T07:04:24;26.87;;;12.70;;
12906;SDS011;6521;50.498;8.474;2023-03-04T07:06:54;27.50;;;11.80;;
12906;SDS011;6521;50.498;8.474;2023-03-04T07:09:25;28.30;;;11.40;;
12906;SDS011;6521;50.498;8.474;2023-03-04T07:11:56;25.53;;;12.07;;
12906;SDS011;6521;50.498;8.474;2023-03-04T07:14:26;26.60;;;11.57;;
12906;SDS011;6521;50.498;8.474;2023-03-04T07:16:57;23.30;;;11.40;;
12906;SDS011;6521;50.498;8.474;2023-03-04T07:19:28;39.23;;;11.57;;
12906;SDS011;6521;50.498;8.474;2023-03-04T07:21:59;26.13;;;11.00;;
12906;SDS011;6521;50.498;8.474;2023-03-04T07:24:29;29.47;;;11.00;;
12906;SDS011;6521;50.498;8.474;2023-03-04T07:27:00;23.00;;;10.43;;
12906;SDS011;6521;50.498;8.474;2023-03-04T07:29:31;34.17;;;11.27;;
12906;SDS011;6521;50.498;8.474;2023-03-04T07:32:05;25.20;;;11.30;;
12906;SDS011;6521;50.498;8.474;2023-03-04T07:34:36;24.17;;;11.00;;
12906;SDS011;6521;50.498;8.474;2023-03-04T07:37:07;36.60;;;10.63;;
12906;SDS011;6521;50.498;8.474;2023-03-04T07:39:38;20.83;;;10.53;;
12906;SDS011;6521;50.498;8.474;2023-03-04T07:42:09;19.77;;;9.90;;
12906;SDS011;6521;50.498;8.474;2023-03-04T07:44:43;26.43;;;10.10;;
12906;SDS011;6521;50.498;8.474;2023-03-04T07:47:14;19.47;;;10.43;;
12906;SDS011;6521;50.498;8.474;2023-03-04T07:49:45;27.47;;;13.73;;
12906;SDS011;6521;50.498;8.474;2023-03-04T07:52:16;24.30;;;10.93;;
12906;SDS011;6521;50.498;8.474;2023-03-04T07:54:47;25.13;;;10.53;;
12906;SDS011;6521;50.498;8.474;2023-03-04T07:57:17;22.67;;;10.53;;
12906;SDS011;6521;50.498;8.474;2023-03-04T07:59:48;24.10;;;12.43;;
12906;SDS011;6521;50.498;8.474;2023-03-04T08:02:19;21.73;;;10.03;;
12906;SDS011;6521;50.498;8.474;2023-03-04T08:04:50;26.70;;;10.63;;
12906;SDS011;6521;50.498;8.474;2023-03-04T08:07:21;26.07;;;11.37;;
12906;SDS011;6521;50.498;8.474;2023-03-04T08:09:51;26.57;;;10.87;;
12906;SDS011;6521;50.498;8.474;2023-03-04T08:12:22;22.13;;;10.10;;
12906;SDS011;6521;50.498;8.474;2023-03-04T08:14:56;24.00;;;10.13;;
12906;SDS011;6521;50.498;8.474;2023-03-04T08:17:26;23.50;;;9.77;;
12906;SDS011;6521;50.498;8.474;2023-03-04T08:19:59;22.80;;;10.20;;
12906;SDS011;6521;50.498;8.474;2023-03-04T08:22:29;28.00;;;10.37;;
12906;SDS011;6521;50.498;8.474;2023-03-04T08:25:00;21.93;;;10.90;;
12906;SDS011;6521;50.498;8.474;2023-03-04T08:27:31;30.70;;;10.80;;
12906;SDS011;6521;50.498;8.474;2023-03-04T08:30:05;25.13;;;9.40;;
12906;SDS011;6521;50.498;8.474;2023-03-04T08:32:36;22.30;;;8.20;;
12906;SDS011;6521;50.498;8.474;2023-03-04T08:35:07;24.43;;;9.03;;
12906;SDS011;6521;50.498;8.474;2023-03-04T08:37:37;25.83;;;9.00;;
12906;SDS011;6521;50.498;8.474;2023-03-04T08:40:08;19.30;;;9.27;;
12906;SDS011;6521;50.498;8.474;2023-03-04T08:42:40;22.63;;;7.93;;
12906;SDS011;6521;50.498;8.474;2023-03-04T08:45:11;18.10;;;7.83;;
12906;SDS011;6521;50.498;8.474;2023-03-04T08:47:41;24.83;;;8.40;;
12906;SDS011;6521;50.498;8.474;2023-03-04T08:50:12;23.07;;;8.83;;
12906;SDS011;6521;50.498;8.474;2023-03-04T08:52:43;26.87;;;7.43;;
12906;SDS011;6521;50.498;8.474;2023-03-04T08:55:13;30.63;;;8.97;;
12906;SDS011;6521;50.498;8.474;2023-03-04T08:57:44;21.40;;;7.20;;
12906;SDS011;6521;50.498;8.474;2023-03-04T09:00:15;21.17;;;7.27;;
12906;SDS011;6521;50.498;8.474;2023-03-04T09:02:46;22.43;;;6.80;;
12906;SDS011;6521;50.498;8.474;2023-03-04T09:05:17;24.23;;;7.67;;
12906;SDS011;6521;50.498;8.474;2023-03-04T09:07:48;19.63;;;7.00;;
12906;SDS011;6521;50.498;8.474;2023-03-04T09:10:18;18.07;;;7.60;;
12906;SDS011;6521;50.498;8.474;2023-03-04T09:12:49;21.40;;;8.53;;
12906;SDS011;6521;50.498;8.474;2023-03-04T09:15:21;22.47;;;6.57;;
12906;SDS011;6521;50.498;8.474;2023-03-04T09:17:51;29.30;;;7.43;;
12906;SDS011;6521;50.498;8.474;2023-03-04T09:20:22;16.10;;;6.63;;
12906;SDS011;6521;50.498;8.474;2023-03-04T09:22:53;17.57;;;6.07;;
12906;SDS011;6521;50.498;8.474;2023-03-04T09:25:24;17.17;;;5.57;;
12906;SDS011;6521;50.498;8.474;2023-03-04T09:27:54;14.20;;;5.37;;
12906;SDS011;6521;50.498;8.474;2023-03-04T09:30:25;23.50;;;5.90;;
12906;SDS011;6521;50.498;8.474;2023-03-04T09:32:56;24.20;;;6.13;;
12906;SDS011;6521;50.498;8.474;2023-03-04T09:35:27;15.47;;;5.53;;
12906;SDS011;6521;50.498;8.474;2023-03-04T09:37:59;19.30;;;5.23;;
12906;SDS011;6521;50.498;8.474;2023-03-04T09:40:40;15.50;;;5.53;;
12906;SDS011;6521;50.498;8.474;2023-03-04T09:43:21;13.33;;;5.37;;
12906;SDS011;6521;50.498;8.474;2023-03-04T09:45:59;12.97;;;5.30;;
12906;SDS011;6521;50.498;8.474;2023-03-04T09:48:37;14.17;;;4.80;;
12906;SDS011;6521;50.498;8.474;2023-03-04T09:51:21;15.83;;;5.27;;
12906;SDS011;6521;50.498;8.474;2023-03-04T09:56:39;18.37;;;4.93;;
12906;SDS011;6521;50.498;8.474;2023-03-04T09:59:24;11.97;;;4.40;;
12906;SDS011;6521;50.498;8.474;2023-03-04T10:01:58;13.77;;;4.47;;
12906;SDS011;6521;50.498;8.474;2023-03-04T10:07:54;9.53;;;3.93;;
12906;SDS011;6521;50.498;8.474;2023-03-04T10:10:18;13.30;;;4.37;;
12906;SDS011;6521;50.498;8.474;2023-03-04T10:12:54;15.13;;;4.50;;
12906;SDS011;6521;50.498;8.474;2023-03-04T10:16:00;9.43;;;4.07;;
12906;SDS011;6521;50.498;8.474;2023-03-04T10:18:26;9.57;;;4.27;;
12906;SDS011;6521;50.498;8.474;2023-03-04T10:21:05;5.90;;;3.60;;
12906;SDS011;6521;50.498;8.474;2023-03-04T10:23:47;8.07;;;3.87;;
12906;SDS011;6521;50.498;8.474;2023-03-04T10:26:19;10.27;;;4.23;;
12906;SDS011;6521;50.498;8.474;2023-03-04T10:28:51;13.37;;;4.33;;
12906;SDS011;6521;50.498;8.474;2023-03-04T10:31:32;17.70;;;4.63;;
12906;SDS011;6521;50.498;8.474;2023-03-04T10:34:08;12.33;;;3.90;;
12906;SDS011;6521;50.498;8.474;2023-03-04T10:36:49;11.37;;;4.20;;
12906;SDS011;6521;50.498;8.474;2023-03-04T10:39:33;12.50;;;3.53;;
12906;SDS011;6521;50.498;8.474;2023-03-04T10:42:22;7.50;;;4.10;;
12906;SDS011;6521;50.498;8.474;2023-03-04T10:44:57;9.43;;;3.67;;
12906;SDS011;6521;50.498;8.474;2023-03-04T10:47:30;11.93;;;4.30;;
12906;SDS011;6521;50.498;8.474;2023-03-04T10:50:03;9.43;;;4.43;;
12906;SDS011;6521;50.498;8.474;2023-03-04T10:52:39;9.17;;;4.47;;
12906;SDS011;6521;50.498;8.474;2023-03-04T10:55:16;8.90;;;4.27;;
12906;SDS011;6521;50.498;8.474;2023-03-04T10:58:01;7.20;;;3.40;;
12906;SDS011;6521;50.498;8.474;2023-03-04T11:00:35;9.53;;;3.53;;
12906;SDS011;6521;50.498;8.474;2023-03-04T11:06:07;22.07;;;9.80;;
12906;SDS011;6521;50.498;8.474;2023-03-04T11:08:47;17.97;;;8.37;;
12906;SDS011;6521;50.498;8.474;2023-03-04T11:11:26;10.93;;;4.27;;
12906;SDS011;6521;50.498;8.474;2023-03-04T11:14:49;10.17;;;3.50;;
12906;SDS011;6521;50.498;8.474;2023-03-04T11:22:44;9.50;;;3.70;;
12906;SDS011;6521;50.498;8.474;2023-03-04T11:25:26;6.00;;;2.53;;
12906;SDS011;6521;50.498;8.474;2023-03-04T11:33:31;4.67;;;3.17;;
12906;SDS011;6521;50.498;8.474;2023-03-04T11:38:52;8.87;;;3.63;;
12906;SDS011;6521;50.498;8.474;2023-03-04T11:43:54;4.97;;;2.50;;
12906;SDS011;6521;50.498;8.474;2023-03-04T11:49:25;25.63;;;10.30;;
12906;SDS011;6521;50.498;8.474;2023-03-04T12:00:31;6.17;;;3.37;;
12906;SDS011;6521;50.498;8.474;2023-03-04T12:03:34;7.10;;;2.63;;
12906;SDS011;6521;50.498;8.474;2023-03-04T12:15:23;3.97;;;2.60;;
12906;SDS011;6521;50.498;8.474;2023-03-04T12:21:28;3.43;;;1.97;;
12906;SDS011;6521;50.498;8.474;2023-03-04T12:30:19;8.30;;;2.57;;
12906;SDS011;6521;50.498;8.474;2023-03-04T12:32:58;8.63;;;3.23;;
12906;SDS011;6521;50.498;8.474;2023-03-04T12:41:21;8.07;;;2.90;;
12906;SDS011;6521;50.498;8.474;2023-03-04T12:44:22;5.37;;;2.37;;
12906;SDS011;6521;50.498;8.474;2023-03-04T12:47:09;5.33;;;2.30;;
12906;SDS011;6521;50.498;8.474;2023-03-04T12:50:06;8.27;;;2.73;;
12906;SDS011;6521;50.498;8.474;2023-03-04T12:52:57;5.97;;;2.10;;
12906;SDS011;6521;50.498;8.474;2023-03-04T12:55:41;3.13;;;2.20;;
12906;SDS011;6521;50.498;8.474;2023-03-04T12:58:17;5.37;;;2.17;;
12906;SDS011;6521;50.498;8.474;2023-03-04T13:01:05;9.13;;;2.40;;
12906;SDS011;6521;50.498;8.474;2023-03-04T13:03:47;6.70;;;2.63;;
12906;SDS011;6521;50.498;8.474;2023-03-04T13:06:44;5.43;;;2.17;;
12906;SDS011;6521;50.498;8.474;2023-03-04T13:09:32;5.47;;;2.60;;
12906;SDS011;6521;50.498;8.474;2023-03-04T13:12:13;5.63;;;3.37;;
12906;SDS011;6521;50.498;8.474;2023-03-04T13:20:39;3.47;;;2.30;;
12906;SDS011;6521;50.498;8.474;2023-03-04T13:28:35;2.57;;;1.70;;
12906;SDS011;6521;50.498;8.474;2023-03-04T13:33:44;7.90;;;2.77;;
12906;SDS011;6521;50.498;8.474;2023-03-04T13:36:26;4.90;;;2.90;;
12906;SDS011;6521;50.498;8.474;2023-03-04T13:39:21;4.80;;;3.07;;
12906;SDS011;6521;50.498;8.474;2023-03-04T13:41:55;7.53;;;4.47;;
12906;SDS011;6521;50.498;8.474;2023-03-04T13:47:33;5.33;;;2.90;;
12906;SDS011;6521;50.498;8.474;2023-03-04T13:50:28;4.80;;;2.33;;
12906;SDS011;6521;50.498;8.474;2023-03-04T13:56:23;4.17;;;2.03;;
12906;SDS011;6521;50.498;8.474;2023-03-04T13:59:09;1.60;;;1.50;;
12906;SDS011;6521;50.498;8.474;2023-03-04T14:01:53;5.27;;;1.60;;
12906;SDS011;6521;50.498;8.474;2023-03-04T14:04:36;3.40;;;1.50;;
12906;SDS011;6521;50.498;8.474;2023-03-04T14:09:58;2.03;;;1.60;;
12906;SDS011;6521;50.498;8.474;2023-03-04T14:12:40;8.83;;;2.50;;
12906;SDS011;6521;50.498;8.474;2023-03-04T14:17:44;5.13;;;2.77;;
12906;SDS011;6521;50.498;8.474;2023-03-04T14:22:59;8.83;;;2.43;;
12906;SDS011;6521;50.498;8.474;2023-03-04T14:25:32;2.40;;;1.90;;
12906;SDS011;6521;50.498;8.474;2023-03-04T14:28:10;3.50;;;2.40;;
12906;SDS011;6521;50.498;8.474;2023-03-04T14:30:42;7.60;;;5.40;;
12906;SDS011;6521;50.498;8.474;2023-03-04T14:33:26;5.47;;;2.60;;
12906;SDS011;6521;50.498;8.474;2023-03-04T14:35:59;2.67;;;2.20;;
12906;SDS011;6521;50.498;8.474;2023-03-04T14:38:32;5.90;;;2.80;;
12906;SDS011;6521;50.498;8.474;2023-03-04T14:41:18;7.10;;;4.47;;
12906;SDS011;6521;50.498;8.474;2023-03-04T14:44:24;3.33;;;2.93;;
12906;SDS011;6521;50.498;8.474;2023-03-04T14:46:59;2.40;;;2.20;;
12906;SDS011;6521;50.498;8.474;2023-03-04T14:49:44;3.23;;;2.93;;
12906;SDS011;6521;50.498;8.474;2023-03-04T14:55:25;3.93;;;2.73;;
12906;SDS011;6521;50.498;8.474;2023-03-04T14:58:18;4.17;;;3.00;;
12906;SDS011;6521;50.498;8.474;2023-03-04T15:01:01;4.00;;;3.00;;
12906;SDS011;6521;50.498;8.474;2023-03-04T15:03:34;9.03;;;3.63;;
12906;SDS011;6521;50.498;8.474;2023-03-04T15:06:15;7.30;;;3.53;;
12906;SDS011;6521;50.498;8.474;2023-03-04T15:08:56;7.87;;;4.33;;
12906;SDS011;6521;50.498;8.474;2023-03-04T15:17:36;4.23;;;3.10;;
12906;SDS011;6521;50.498;8.474;2023-03-04T15:25:12;4.37;;;2.70;;
12906;SDS011;6521;50.498;8.474;2023-03-04T15:27:48;7.67;;;2.83;;
12906;SDS011;6521;50.498;8.474;2023-03-04T15:30:21;2.50;;;2.17;;
12906;SDS011;6521;50.498;8.474;2023-03-04T15:32:55;5.40;;;2.20;;
12906;SDS011;6521;50.498;8.474;2023-03-04T15:35:27;5.73;;;2.27;;
12906;SDS011;6521;50.498;8.474;2023-03-04T15:38:01;9.57;;;2.07;;
12906;SDS011;6521;50.498;8.474;2023-03-04T15:40:35;3.33;;;2.10;;
12906;SDS011;6521;50.498;8.474;2023-03-04T15:43:14;2.97;;;2.63;;
12906;SDS011;6521;50.498;8.474;2023-03-04T15:45:47;4.27;;;3.07;;
12906;SDS011;6521;50.498;8.474;2023-03-04T15:48:19;6.03;;;4.47;;
12906;SDS011;6521;50.498;8.474;2023-03-04T15:50:54;4.37;;;3.03;;
12906;SDS011;6521;50.498;8.474;2023-03-04T15:53:30;5.63;;;3.40;;
12906;SDS011;6521;50.498;8.474;2023-03-04T15:56:07;7.43;;;3.33;;
12906;SDS011;6521;50.498;8.474;2023-03-04T15:58:42;5.80;;;3.70;;
12906;SDS011;6521;50.498;8.474;2023-03-04T16:01:14;7.97;;;3.73;;
12906;SDS011;6521;50.498;8.474;2023-03-04T16:03:46;5.77;;;4.10;;
12906;SDS011;6521;50.498;8.474;2023-03-04T16:06:17;5.27;;;4.53;;
12906;SDS011;6521;50.498;8.474;2023-03-04T16:08:50;8.33;;;4.53;;
12906;SDS011;6521;50.498;8.474;2023-03-04T16:11:22;8.70;;;5.43;;
12906;SDS011;6521;50.498;8.474;2023-03-04T16:13:54;9.87;;;6.73;;
12906;SDS011;6521;50.498;8.474;2023-03-04T16:16:25;10.47;;;7.00;;
12906;SDS011;6521;50.498;8.474;2023-03-04T16:18:56;12.30;;;7.80;;
12906;SDS011;6521;50.498;8.474;2023-03-04T16:21:27;17.63;;;8.87;;
12906;SDS011;6521;50.498;8.474;2023-03-04T16:23:58;12.53;;;7.80;;
12906;SDS011;6521;50.498;8.474;2023-03-04T16:26:30;14.50;;;8.53;;
12906;SDS011;6521;50.498;8.474;2023-03-04T16:29:02;16.77;;;10.20;;
12906;SDS011;6521;50.498;8.474;2023-03-04T16:31:33;17.27;;;11.13;;
12906;SDS011;6521;50.498;8.474;2023-03-04T16:34:03;16.50;;;11.23;;
12906;SDS011;6521;50.498;8.474;2023-03-04T16:36:35;16.03;;;11.87;;
12906;SDS011;6521;50.498;8.474;2023-03-04T16:39:07;13.53;;;10.03;;
12906;SDS011;6521;50.498;8.474;2023-03-04T16:41:47;21.23;;;11.27;;
12906;SDS011;6521;50.498;8.474;2023-03-04T16:44:18;19.63;;;11.80;;
12906;SDS011;6521;50.498;8.474;2023-03-04T16:46:48;21.87;;;11.07;;
12906;SDS011;6521;50.498;8.474;2023-03-04T16:49:19;22.13;;;11.27;;
12906;SDS011;6521;50.498;8.474;2023-03-04T16:51:50;16.27;;;11.07;;
12906;SDS011;6521;50.498;8.474;2023-03-04T16:54:28;18.63;;;12.73;;
12906;SDS011;6521;50.498;8.474;2023-03-04T16:57:01;21.97;;;13.07;;
12906;SDS011;6521;50.498;8.474;2023-03-04T16:59:32;20.80;;;13.80;;
12906;SDS011;6521;50.498;8.474;2023-03-04T17:02:05;20.00;;;11.10;;
12906;SDS011;6521;50.498;8.474;2023-03-04T17:04:42;19.90;;;12.90;;
12906;SDS011;6521;50.498;8.474;2023-03-04T17:07:14;16.33;;;11.70;;
12906;SDS011;6521;50.498;8.474;2023-03-04T17:09:46;20.60;;;13.37;;
12906;SDS011;6521;50.498;8.474;2023-03-04T17:12:17;18.87;;;13.10;;
12906;SDS011;6521;50.498;8.474;2023-03-04T17:14:48;19.13;;;13.23;;